createdAt,value
2017-11-28T00:01:15.058Z,0
2017-11-28T00:02:15.114Z,0
2017-11-28T00:03:29.753Z,0
2017-11-28T00:04:15.071Z,0
2017-11-28T00:05:15.116Z,0
2017-11-28T00:06:14.861Z,0
2017-11-28T00:07:15.143Z,0
2017-11-28T00:08:14.947Z,0
2017-11-28T00:09:15.163Z,0
2017-11-28T00:10:15.148Z,0
2017-11-28T00:11:15.204Z,0
2017-11-28T00:12:29.370Z,0
2017-11-28T00:13:15.232Z,0
2017-11-28T00:14:29.897Z,0
2017-11-28T00:15:15.291Z,0
2017-11-28T00:16:15.261Z,0
2017-11-28T00:17:29.979Z,0
2017-11-28T00:18:29.995Z,0
2017-11-28T00:19:30.009Z,0
2017-11-28T00:20:15.325Z,0
2017-11-28T00:21:14.848Z,0
2017-11-28T00:22:15.127Z,0
2017-11-28T00:23:15.400Z,0
2017-11-28T00:24:15.389Z,0
2017-11-28T00:25:15.388Z,0
2017-11-28T00:26:15.294Z,0
2017-11-28T00:27:15.186Z,0
2017-11-28T00:28:15.493Z,0
2017-11-28T00:29:30.193Z,0
2017-11-28T00:30:44.584Z,0
2017-11-28T00:31:15.527Z,0
2017-11-28T00:32:15.567Z,0
2017-11-28T00:33:15.585Z,0
2017-11-28T00:34:15.300Z,0
2017-11-28T00:35:15.621Z,0
2017-11-28T00:36:15.609Z,0
2017-11-28T00:38:15.630Z,0
2017-11-28T00:39:30.371Z,0
2017-11-28T00:40:15.701Z,0
2017-11-28T00:41:15.697Z,0
2017-11-28T00:42:15.733Z,0
2017-11-28T00:43:15.741Z,0
2017-11-28T00:44:15.729Z,0
2017-11-28T00:45:30.410Z,0
2017-11-28T00:46:15.532Z,0
2017-11-28T00:47:15.573Z,0
2017-11-28T00:48:15.545Z,0
2017-11-28T00:50:15.295Z,0
2017-11-28T00:51:15.614Z,0
2017-11-28T00:52:30.300Z,0
2017-11-28T00:53:15.870Z,0
2017-11-28T00:55:15.409Z,0
2017-11-28T00:56:15.949Z,0
2017-11-28T00:58:15.958Z,0
2017-11-28T00:59:15.771Z,0
2017-11-28T01:00:15.989Z,0
2017-11-28T01:01:16.022Z,0
2017-11-28T01:02:15.788Z,0
2017-11-28T01:03:16.071Z,0
2017-11-28T01:04:15.820Z,0
2017-11-28T01:05:16.100Z,0
2017-11-28T01:07:16.156Z,0
2017-11-28T01:08:16.170Z,0
2017-11-28T01:10:30.870Z,0
2017-11-28T01:11:30.606Z,0
2017-11-28T01:12:15.975Z,0
2017-11-28T01:13:15.978Z,0
2017-11-28T01:14:30.872Z,0
2017-11-28T01:15:30.901Z,0
2017-11-28T01:16:16.299Z,0
2017-11-28T01:18:16.330Z,0
2017-11-28T01:19:16.336Z,0
2017-11-28T01:20:16.374Z,0
2017-11-28T01:21:16.392Z,0
2017-11-28T01:22:16.123Z,0
2017-11-28T01:23:16.392Z,0
2017-11-28T01:25:31.065Z,0
2017-11-28T01:26:16.154Z,0
2017-11-28T01:27:31.180Z,0
2017-11-28T01:29:16.504Z,0
2017-11-28T01:30:16.263Z,0
2017-11-28T01:31:16.244Z,0
2017-11-28T01:32:30.951Z,0
2017-11-28T01:33:31.192Z,0
2017-11-28T01:34:16.619Z,0
2017-11-28T01:35:31.318Z,0
2017-11-28T01:36:31.006Z,0
2017-11-28T01:38:31.296Z,0
2017-11-28T01:39:16.702Z,0
2017-11-28T01:40:16.680Z,0
2017-11-28T01:41:16.732Z,0
2017-11-28T01:43:16.711Z,0
2017-11-28T01:44:31.407Z,0
2017-11-28T01:45:16.772Z,0
2017-11-28T01:46:16.523Z,0
2017-11-28T01:47:16.813Z,0
2017-11-28T01:48:16.832Z,0
2017-11-28T01:49:31.486Z,0
2017-11-28T01:50:16.644Z,0
2017-11-28T01:51:16.826Z,0
2017-11-28T01:52:16.627Z,0
2017-11-28T01:53:16.884Z,0
2017-11-28T01:54:16.924Z,0
2017-11-28T01:55:16.941Z,0
2017-11-28T01:56:16.913Z,0
2017-11-28T01:57:16.952Z,0
2017-11-28T01:58:16.946Z,0
2017-11-28T01:59:31.638Z,0
2017-11-28T02:00:31.665Z,0
2017-11-28T02:01:17.027Z,0
2017-11-28T02:02:17.052Z,0
2017-11-28T02:03:17.051Z,0
2017-11-28T02:04:17.082Z,0
2017-11-28T02:05:31.743Z,0
2017-11-28T02:06:17.140Z,0
2017-11-28T02:07:31.810Z,0
2017-11-28T02:08:17.150Z,0
2017-11-28T02:09:31.862Z,0
2017-11-28T02:10:17.201Z,0
2017-11-28T02:11:17.192Z,0
2017-11-28T02:12:31.874Z,0
2017-11-28T02:13:31.858Z,0
2017-11-28T02:14:17.267Z,0
2017-11-28T02:15:17.025Z,0
2017-11-28T02:16:17.310Z,0
2017-11-28T02:17:17.344Z,0
2017-11-28T02:18:17.352Z,0
2017-11-28T02:19:31.985Z,0
2017-11-28T02:20:46.666Z,0
2017-11-28T02:22:32.015Z,0
2017-11-28T02:23:17.403Z,0
2017-11-28T02:24:32.128Z,0
2017-11-28T02:25:17.431Z,0
2017-11-28T02:26:17.477Z,0
2017-11-28T02:27:32.131Z,0
2017-11-28T02:28:17.504Z,0
2017-11-28T02:29:17.467Z,0
2017-11-28T02:30:32.204Z,0
2017-11-28T02:31:17.253Z,0
2017-11-28T02:32:17.534Z,0
2017-11-28T02:34:17.571Z,0
2017-11-28T02:35:17.610Z,0
2017-11-28T02:36:31.988Z,0
2017-11-28T02:37:17.623Z,0
2017-11-28T02:38:17.635Z,0
2017-11-28T02:39:32.334Z,0
2017-11-28T02:40:17.632Z,0
2017-11-28T02:41:32.090Z,0
2017-11-28T02:42:32.125Z,0
2017-11-28T02:43:17.702Z,0
2017-11-28T02:44:17.752Z,0
2017-11-28T02:45:17.774Z,0
2017-11-28T02:46:17.797Z,0
2017-11-28T02:47:17.813Z,0
2017-11-28T02:48:17.554Z,0
2017-11-28T02:49:17.812Z,0
2017-11-28T02:50:32.222Z,0
2017-11-28T02:51:32.557Z,0
2017-11-28T02:52:32.509Z,0
2017-11-28T02:53:17.921Z,0
2017-11-28T02:54:17.923Z,0
2017-11-28T02:55:17.930Z,0
2017-11-28T02:56:17.971Z,0
2017-11-28T02:57:32.636Z,0
2017-11-28T02:58:17.710Z,0
2017-11-28T02:59:17.957Z,0
2017-11-28T03:00:17.978Z,0
2017-11-28T03:01:32.672Z,0
2017-11-28T03:02:18.029Z,0
2017-11-28T03:03:18.050Z,0
2017-11-28T03:04:18.104Z,0
2017-11-28T03:05:18.107Z,0
2017-11-28T03:06:18.123Z,0
2017-11-28T03:07:18.101Z,0
2017-11-28T03:08:32.801Z,0
2017-11-28T03:09:18.149Z,0
2017-11-28T03:10:18.174Z,0
2017-11-28T03:11:32.861Z,0
2017-11-28T03:12:18.234Z,0
2017-11-28T03:13:18.218Z,0
2017-11-28T03:14:18.262Z,0
2017-11-28T03:15:18.215Z,0
2017-11-28T03:16:18.295Z,0
2017-11-28T03:17:18.294Z,0
2017-11-28T03:18:18.320Z,0
2017-11-28T03:21:18.444Z,0
2017-11-28T03:22:18.353Z,0
2017-11-28T03:23:18.370Z,0
2017-11-28T03:24:33.082Z,0
2017-11-28T03:25:18.417Z,0
2017-11-28T03:26:18.477Z,0
2017-11-28T03:27:18.473Z,0
2017-11-28T03:28:18.204Z,0
2017-11-28T03:29:33.184Z,0
2017-11-28T03:30:18.263Z,0
2017-11-28T03:31:18.268Z,0
2017-11-28T03:32:18.514Z,0
2017-11-28T03:33:18.583Z,0
2017-11-28T03:34:18.566Z,0
2017-11-28T03:35:18.605Z,0
2017-11-28T03:36:18.639Z,0
2017-11-28T03:37:18.606Z,0
2017-11-28T03:38:33.055Z,0
2017-11-28T03:39:18.421Z,0
2017-11-28T03:40:33.325Z,0
2017-11-28T03:41:18.690Z,0
2017-11-28T03:42:18.718Z,0
2017-11-28T03:43:18.487Z,0
2017-11-28T03:44:18.758Z,0
2017-11-28T03:45:18.776Z,0
2017-11-28T03:46:18.750Z,0
2017-11-28T03:47:18.797Z,0
2017-11-28T03:48:33.468Z,0
2017-11-28T03:49:18.848Z,0
2017-11-28T03:50:33.511Z,0
2017-11-28T03:51:18.893Z,0
2017-11-28T03:52:33.302Z,0
2017-11-28T03:53:18.915Z,0
2017-11-28T03:54:33.579Z,0
2017-11-28T03:55:33.608Z,0
2017-11-28T03:56:18.995Z,0
2017-11-28T03:57:18.981Z,0
2017-11-28T03:58:18.980Z,0
2017-11-28T03:59:19.028Z,0
2017-11-28T04:00:18.761Z,0
2017-11-28T04:02:19.019Z,0
2017-11-28T04:03:19.078Z,0
2017-11-28T04:04:33.715Z,0
2017-11-28T04:05:19.080Z,0
2017-11-28T04:06:19.112Z,0
2017-11-28T04:07:19.102Z,0
2017-11-28T04:08:19.143Z,0
2017-11-28T04:09:19.181Z,0
2017-11-28T04:10:19.191Z,0
2017-11-28T04:11:19.203Z,0
2017-11-28T04:13:19.245Z,0
2017-11-28T04:14:33.943Z,0
2017-11-28T04:15:19.244Z,0
2017-11-28T04:16:19.268Z,0
2017-11-28T04:17:19.299Z,0
2017-11-28T04:19:19.313Z,0
2017-11-28T04:20:19.359Z,0
2017-11-28T04:21:19.339Z,0
2017-11-28T04:22:19.379Z,0
2017-11-28T04:23:33.838Z,0
2017-11-28T04:24:19.437Z,0
2017-11-28T04:25:19.459Z,0
2017-11-28T04:26:19.470Z,0
2017-11-28T04:27:33.892Z,0
2017-11-28T04:28:19.518Z,0
2017-11-28T04:29:19.508Z,0
2017-11-28T04:30:19.522Z,0
2017-11-28T04:31:34.215Z,0
2017-11-28T04:32:19.588Z,0
2017-11-28T04:33:19.306Z,0
2017-11-28T04:34:19.560Z,0
2017-11-28T04:35:34.297Z,0
2017-11-28T04:36:19.659Z,0
2017-11-28T04:37:19.644Z,0
2017-11-28T04:38:19.401Z,0
2017-11-28T04:39:19.674Z,0
2017-11-28T04:40:34.340Z,0
2017-11-28T04:41:19.689Z,0
2017-11-28T04:43:49.044Z,0
2017-11-28T04:44:19.801Z,0
2017-11-28T04:45:34.484Z,0
2017-11-28T04:46:19.812Z,0
2017-11-28T04:47:19.781Z,0
2017-11-28T04:48:19.836Z,0
2017-11-28T04:49:19.843Z,0
2017-11-28T04:50:19.839Z,0
2017-11-28T04:51:19.837Z,0
2017-11-28T04:52:19.950Z,0
2017-11-28T04:53:19.912Z,0
2017-11-28T04:54:34.354Z,0
2017-11-28T04:55:19.951Z,0
2017-11-28T04:56:19.947Z,0
2017-11-28T04:57:19.969Z,0
2017-11-28T04:58:19.720Z,0
2017-11-28T04:59:34.678Z,0
2017-11-28T05:00:19.741Z,0
2017-11-28T05:01:19.791Z,0
2017-11-28T05:02:20.038Z,0
2017-11-28T05:03:20.092Z,0
2017-11-28T05:04:19.863Z,0
2017-11-28T05:05:34.482Z,0
2017-11-28T05:06:20.125Z,0
2017-11-28T05:07:34.785Z,0
2017-11-28T05:08:20.166Z,0
2017-11-28T05:09:20.195Z,0
2017-11-28T05:10:34.857Z,0
2017-11-28T05:11:20.203Z,0
2017-11-28T05:12:34.902Z,0
2017-11-28T05:13:20.236Z,0
2017-11-28T05:14:20.228Z,0
2017-11-28T05:15:49.613Z,0
2017-11-28T05:16:35.066Z,0
2017-11-28T05:18:20.332Z,0
2017-11-28T05:20:35.003Z,0
2017-11-28T05:22:20.298Z,0
2017-11-28T05:23:20.418Z,0
2017-11-28T05:24:35.099Z,0
2017-11-28T05:25:20.441Z,0
2017-11-28T05:26:20.449Z,0
2017-11-28T05:27:20.499Z,0
2017-11-28T05:28:20.532Z,0
2017-11-28T05:29:20.524Z,0
2017-11-28T05:30:49.589Z,0
2017-11-28T05:31:20.532Z,0
2017-11-28T05:32:20.622Z,0
2017-11-28T05:33:20.603Z,0
2017-11-28T05:34:20.607Z,0
2017-11-28T05:35:20.644Z,0
2017-11-28T05:36:20.646Z,0
2017-11-28T05:37:20.647Z,0
2017-11-28T05:38:20.673Z,0
2017-11-28T05:39:35.387Z,0
2017-11-28T05:40:20.454Z,0
2017-11-28T05:41:20.733Z,0
2017-11-28T05:43:20.778Z,0
2017-11-28T05:44:20.784Z,0
2017-11-28T05:45:20.784Z,0
2017-11-28T05:46:20.783Z,0
2017-11-28T05:47:20.780Z,0
2017-11-28T05:48:20.886Z,0
2017-11-28T05:49:20.868Z,0
2017-11-28T05:50:20.864Z,0
2017-11-28T05:51:20.930Z,0
2017-11-28T05:52:20.919Z,0
2017-11-28T05:53:20.907Z,0
2017-11-28T05:54:20.964Z,0
2017-11-28T05:55:35.357Z,0
2017-11-28T05:56:20.992Z,0
2017-11-28T05:57:20.480Z,0
2017-11-28T05:58:20.991Z,0
2017-11-28T05:59:21.026Z,0
2017-11-28T06:00:35.710Z,0
2017-11-28T06:01:21.061Z,0
2017-11-28T06:02:50.381Z,0
2017-11-28T06:03:21.062Z,0
2017-11-28T06:04:21.130Z,0
2017-11-28T06:05:21.141Z,0
2017-11-28T06:06:21.121Z,0
2017-11-28T06:07:21.162Z,0
2017-11-28T06:08:35.831Z,0
2017-11-28T06:09:35.590Z,0
2017-11-28T06:10:21.171Z,0
2017-11-28T06:11:21.281Z,0
2017-11-28T06:12:21.249Z,0
2017-11-28T06:13:21.259Z,0
2017-11-28T06:14:35.943Z,0
2017-11-28T06:15:21.321Z,0
2017-11-28T06:16:21.336Z,0
2017-11-28T06:17:21.344Z,0
2017-11-28T06:18:35.777Z,0
2017-11-28T06:19:21.380Z,0
2017-11-28T06:20:21.356Z,0
2017-11-28T06:21:21.422Z,0
2017-11-28T06:22:36.110Z,0
2017-11-28T06:23:36.098Z,0
2017-11-28T06:24:21.432Z,0
2017-11-28T06:26:21.463Z,0
2017-11-28T06:27:21.507Z,0
2017-11-28T06:28:21.525Z,0
2017-11-28T06:29:21.548Z,0
2017-11-28T06:30:21.572Z,0
2017-11-28T06:31:21.544Z,0
2017-11-28T06:32:36.217Z,0
2017-11-28T06:33:21.620Z,0
2017-11-28T06:34:36.032Z,0
2017-11-28T06:35:21.652Z,0
2017-11-28T06:36:21.422Z,0
2017-11-28T06:37:21.646Z,0
2017-11-28T06:39:36.108Z,0
2017-11-28T06:40:21.716Z,0
2017-11-28T06:41:21.748Z,0
2017-11-28T06:42:21.842Z,0
2017-11-28T06:43:36.430Z,0
2017-11-28T06:45:36.467Z,0
2017-11-28T06:46:21.793Z,0
2017-11-28T06:47:21.846Z,0
2017-11-28T06:48:21.865Z,0
2017-11-28T06:49:21.876Z,0
2017-11-28T06:50:36.312Z,0
2017-11-28T06:51:21.889Z,0
2017-11-28T06:52:36.592Z,0
2017-11-28T06:53:21.965Z,0
2017-11-28T06:54:21.992Z,0
2017-11-28T06:55:21.680Z,0
2017-11-28T06:56:22.003Z,0
2017-11-28T06:57:21.728Z,0
2017-11-28T06:58:22.017Z,0
2017-11-28T06:59:22.025Z,0
2017-11-28T07:00:22.016Z,0
2017-11-28T07:01:22.051Z,0
2017-11-28T07:02:22.081Z,0
2017-11-28T07:03:22.097Z,0
2017-11-28T07:04:21.847Z,0
2017-11-28T07:05:36.794Z,0
2017-11-28T07:06:21.872Z,0
2017-11-28T07:07:21.918Z,0
2017-11-28T07:08:22.209Z,0
2017-11-28T07:09:21.931Z,0
2017-11-28T07:10:22.256Z,0
2017-11-28T07:11:36.930Z,0
2017-11-28T07:12:22.234Z,0
2017-11-28T07:13:22.295Z,0
2017-11-28T07:16:22.328Z,5
2017-11-28T07:17:22.083Z,5
2017-11-28T07:18:22.351Z,5
2017-11-28T07:20:22.414Z,5
2017-11-28T07:22:22.433Z,5
2017-11-28T07:23:22.181Z,5
2017-11-28T07:24:22.225Z,5
2017-11-28T07:25:22.483Z,5
2017-11-28T07:26:22.510Z,5
2017-11-28T07:27:22.498Z,5
2017-11-28T07:28:22.532Z,5
2017-11-28T07:29:37.170Z,5
2017-11-28T07:30:22.576Z,5
2017-11-28T07:31:22.589Z,5
2017-11-28T07:32:22.605Z,5
2017-11-28T07:33:22.371Z,5
2017-11-28T07:34:22.683Z,5
2017-11-28T07:35:22.633Z,5
2017-11-28T07:36:22.669Z,5
2017-11-28T07:37:37.336Z,5
2017-11-28T07:38:22.668Z,5
2017-11-28T07:39:22.685Z,5
2017-11-28T07:40:22.731Z,5
2017-11-28T07:41:22.719Z,10
2017-11-28T07:42:22.462Z,10
2017-11-28T07:44:22.530Z,5
2017-11-28T07:46:22.821Z,5
2017-11-28T07:47:22.840Z,10
2017-11-28T07:48:22.875Z,10
2017-11-28T07:49:22.583Z,10
2017-11-28T07:50:22.919Z,10
2017-11-28T07:51:37.564Z,10
2017-11-28T07:52:22.980Z,10
2017-11-28T07:53:37.621Z,10
2017-11-28T07:54:22.939Z,10
2017-11-28T07:55:22.994Z,10
2017-11-28T07:56:22.976Z,15
2017-11-28T07:57:23.013Z,15
2017-11-28T07:59:37.718Z,15
2017-11-28T08:01:37.816Z,20
2017-11-28T08:02:37.751Z,20
2017-11-28T08:03:23.101Z,20
2017-11-28T08:04:23.171Z,25
2017-11-28T08:05:23.165Z,25
2017-11-28T08:06:23.208Z,25
2017-11-28T08:07:23.206Z,30
2017-11-28T08:08:37.577Z,30
2017-11-28T08:09:52.297Z,35
2017-11-28T08:10:23.264Z,35
2017-11-28T08:11:23.240Z,35
2017-11-28T08:12:22.993Z,40
2017-11-28T08:13:23.268Z,40
2017-11-28T08:14:23.296Z,40
2017-11-28T08:15:37.989Z,40
2017-11-28T08:16:23.344Z,40
2017-11-28T08:17:38.033Z,45
2017-11-28T08:18:23.366Z,45
2017-11-28T08:19:23.123Z,45
2017-11-28T08:20:38.072Z,40
2017-11-28T08:21:23.199Z,40
2017-11-28T08:22:23.437Z,40
2017-11-28T08:23:23.171Z,40
2017-11-28T08:24:23.258Z,40
2017-11-28T08:25:38.177Z,45
2017-11-28T08:27:37.941Z,45
2017-11-28T08:28:23.287Z,45
2017-11-28T08:29:23.310Z,45
2017-11-28T08:30:38.244Z,50
2017-11-28T08:31:38.292Z,50
2017-11-28T08:32:23.633Z,50
2017-11-28T08:33:23.663Z,50
2017-11-28T08:34:23.651Z,45
2017-11-28T08:35:23.698Z,45
2017-11-28T08:36:23.807Z,45
2017-11-28T08:37:23.686Z,45
2017-11-28T08:38:38.382Z,45
2017-11-28T08:39:23.772Z,40
2017-11-28T08:40:38.427Z,40
2017-11-28T08:41:23.796Z,40
2017-11-28T08:42:23.547Z,40
2017-11-28T08:43:23.650Z,40
2017-11-28T08:44:38.474Z,40
2017-11-28T08:45:23.829Z,40
2017-11-28T08:46:38.524Z,35
2017-11-28T08:47:23.918Z,35
2017-11-28T08:48:23.905Z,35
2017-11-28T08:49:38.653Z,35
2017-11-28T08:50:23.954Z,35
2017-11-28T08:51:23.982Z,35
2017-11-28T08:53:23.938Z,30
2017-11-28T08:54:23.760Z,30
2017-11-28T08:55:38.684Z,30
2017-11-28T08:56:38.429Z,30
2017-11-28T08:57:23.776Z,30
2017-11-28T08:58:23.824Z,30
2017-11-28T08:59:24.101Z,30
2017-11-28T09:00:24.116Z,30
2017-11-28T09:01:24.107Z,30
2017-11-28T09:02:24.170Z,30
2017-11-28T09:03:24.179Z,35
2017-11-28T09:05:24.179Z,35
2017-11-28T09:06:24.241Z,35
2017-11-28T09:07:24.274Z,35
2017-11-28T09:08:23.968Z,35
2017-11-28T09:09:24.284Z,35
2017-11-28T09:10:24.330Z,40
2017-11-28T09:11:24.326Z,40
2017-11-28T09:12:38.981Z,40
2017-11-28T09:13:24.330Z,40
2017-11-28T09:14:39.020Z,40
2017-11-28T09:15:24.395Z,40
2017-11-28T09:17:24.136Z,40
2017-11-28T09:18:53.755Z,45
2017-11-28T09:19:38.840Z,45
2017-11-28T09:20:24.502Z,45
2017-11-28T09:21:24.538Z,45
2017-11-28T09:22:39.166Z,45
2017-11-28T09:23:39.185Z,45
2017-11-28T09:24:24.685Z,45
2017-11-28T09:25:24.550Z,45
2017-11-28T09:26:39.303Z,45
2017-11-28T09:27:24.326Z,40
2017-11-28T09:28:39.387Z,40
2017-11-28T09:29:24.359Z,40
2017-11-28T09:30:39.074Z,40
2017-11-28T09:31:24.368Z,45
2017-11-28T09:32:24.653Z,45
2017-11-28T09:33:39.378Z,45
2017-11-28T09:34:24.691Z,45
2017-11-28T09:35:24.495Z,45
2017-11-28T09:36:24.763Z,45
2017-11-28T09:37:24.794Z,45
2017-11-28T09:38:24.776Z,45
2017-11-28T09:39:24.828Z,45
2017-11-28T09:40:24.921Z,45
2017-11-28T09:41:24.608Z,50
2017-11-28T09:42:24.857Z,50
2017-11-28T09:43:24.944Z,50
2017-11-28T09:44:39.318Z,50
2017-11-28T09:45:24.639Z,50
2017-11-28T09:46:24.646Z,55
2017-11-28T09:47:24.675Z,55
2017-11-28T09:48:24.964Z,50
2017-11-28T09:49:54.329Z,50
2017-11-28T09:51:25.033Z,45
2017-11-28T09:52:25.003Z,45
2017-11-28T09:53:39.700Z,45
2017-11-28T09:54:25.083Z,45
2017-11-28T09:55:39.768Z,50
2017-11-28T09:56:25.106Z,50
2017-11-28T09:57:25.096Z,50
2017-11-28T09:58:25.157Z,55
2017-11-28T09:59:24.922Z,55
2017-11-28T10:00:39.875Z,60
2017-11-28T10:01:25.211Z,55
2017-11-28T10:02:25.213Z,55
2017-11-28T10:03:25.226Z,55
2017-11-28T10:04:25.226Z,55
2017-11-28T10:05:25.281Z,50
2017-11-28T10:06:25.010Z,50
2017-11-28T10:07:39.985Z,45
2017-11-28T10:08:25.326Z,45
2017-11-28T10:09:25.343Z,45
2017-11-28T10:10:25.389Z,45
2017-11-28T10:11:25.379Z,45
2017-11-28T10:12:25.368Z,45
2017-11-28T10:13:25.432Z,45
2017-11-28T10:14:25.424Z,45
2017-11-28T10:15:39.593Z,45
2017-11-28T10:16:24.956Z,40
2017-11-28T10:17:25.474Z,40
2017-11-28T10:18:25.500Z,40
2017-11-28T10:19:25.605Z,40
2017-11-28T10:20:40.197Z,40
2017-11-28T10:21:25.557Z,40
2017-11-28T10:22:25.551Z,45
2017-11-28T10:23:25.571Z,45
2017-11-28T10:24:25.601Z,45
2017-11-28T10:25:25.625Z,45
2017-11-28T10:26:40.299Z,45
2017-11-28T10:27:25.649Z,45
2017-11-28T10:28:40.343Z,45
2017-11-28T10:29:40.094Z,45
2017-11-28T10:30:25.726Z,45
2017-11-28T10:31:40.411Z,45
2017-11-28T10:32:25.772Z,45
2017-11-28T10:33:25.771Z,45
2017-11-28T10:34:25.780Z,50
2017-11-28T10:35:40.493Z,45
2017-11-28T10:36:40.541Z,50
2017-11-28T10:37:25.862Z,50
2017-11-28T10:38:25.867Z,50
2017-11-28T10:39:40.532Z,50
2017-11-28T10:40:25.868Z,50
2017-11-28T10:41:40.580Z,50
2017-11-28T10:42:25.914Z,50
2017-11-28T10:43:25.947Z,50
2017-11-28T10:44:26.008Z,50
2017-11-28T10:45:25.964Z,50
2017-11-28T10:46:25.753Z,50
2017-11-28T10:47:40.697Z,50
2017-11-28T10:48:26.040Z,50
2017-11-28T10:49:26.040Z,50
2017-11-28T10:50:26.093Z,50
2017-11-28T10:51:26.079Z,55
2017-11-28T10:52:25.848Z,55
2017-11-28T10:54:40.825Z,60
2017-11-28T10:55:26.161Z,60
2017-11-28T10:56:25.652Z,55
2017-11-28T10:57:26.177Z,55
2017-11-28T10:58:26.178Z,55
2017-11-28T10:59:25.998Z,55
2017-11-28T11:00:26.272Z,55
2017-11-28T11:01:26.420Z,55
2017-11-28T11:02:26.323Z,55
2017-11-28T11:03:55.621Z,65
2017-11-28T11:04:26.345Z,70
2017-11-28T11:05:26.304Z,75
2017-11-28T11:06:26.348Z,75
2017-11-28T11:07:26.365Z,80
2017-11-28T11:08:26.409Z,80
2017-11-28T11:09:26.463Z,80
2017-11-28T11:10:26.161Z,75
2017-11-28T11:11:26.228Z,75
2017-11-28T11:13:26.518Z,70
2017-11-28T11:14:26.515Z,65
2017-11-28T11:15:26.534Z,65
2017-11-28T11:16:26.585Z,60
2017-11-28T11:17:26.547Z,55
2017-11-28T11:18:26.418Z,50
2017-11-28T11:19:55.933Z,55
2017-11-28T11:20:26.636Z,60
2017-11-28T11:22:26.706Z,80
2017-11-28T11:23:41.328Z,75
2017-11-28T11:24:26.672Z,75
2017-11-28T11:25:26.714Z,75
2017-11-28T11:26:26.795Z,70
2017-11-28T11:27:26.752Z,60
2017-11-28T11:28:26.545Z,60
2017-11-28T11:29:26.809Z,60
2017-11-28T11:30:41.459Z,50
2017-11-28T11:31:26.598Z,45
2017-11-28T11:33:26.855Z,45
2017-11-28T11:34:41.027Z,50
2017-11-28T11:35:41.575Z,55
2017-11-28T11:36:26.932Z,50
2017-11-28T11:37:26.692Z,55
2017-11-28T11:38:41.640Z,55
2017-11-28T11:39:26.986Z,60
2017-11-28T11:40:26.972Z,60
2017-11-28T11:41:41.687Z,60
2017-11-28T11:43:27.043Z,70
2017-11-28T11:44:27.075Z,75
2017-11-28T11:45:27.105Z,80
2017-11-28T11:47:27.106Z,80
2017-11-28T11:48:27.142Z,85
2017-11-28T11:49:26.891Z,80
2017-11-28T11:50:41.896Z,80
2017-11-28T11:51:41.620Z,75
2017-11-28T11:52:41.598Z,85
2017-11-28T11:53:41.918Z,80
2017-11-28T11:54:26.974Z,85
2017-11-28T11:55:27.287Z,80
2017-11-28T11:56:27.308Z,75
2017-11-28T11:57:27.065Z,70
2017-11-28T11:58:27.344Z,65
2017-11-28T11:59:27.333Z,60
2017-11-28T12:00:27.400Z,60
2017-11-28T12:01:27.340Z,60
2017-11-28T12:02:27.432Z,65
2017-11-28T12:04:27.437Z,85
2017-11-28T12:05:27.450Z,95
2017-11-28T12:06:27.195Z,90
2017-11-28T12:07:27.237Z,95
2017-11-28T12:08:27.513Z,90
2017-11-28T12:09:27.527Z,85
2017-11-28T12:10:27.550Z,95
2017-11-28T12:11:42.209Z,100
2017-11-28T12:12:42.243Z,100
2017-11-28T12:13:27.583Z,100
2017-11-28T12:15:42.312Z,100
2017-11-28T12:17:27.436Z,105
2017-11-28T12:19:27.693Z,100
2017-11-28T12:20:27.448Z,100
2017-11-28T12:21:27.751Z,95
2017-11-28T12:23:27.780Z,90
2017-11-28T12:24:42.483Z,90
2017-11-28T12:26:27.828Z,70
2017-11-28T12:27:42.559Z,75
2017-11-28T12:28:27.879Z,65
2017-11-28T12:29:42.557Z,60
2017-11-28T12:30:27.880Z,60
2017-11-28T12:31:27.959Z,75
2017-11-28T12:33:27.972Z,60
2017-11-28T12:34:27.740Z,55
2017-11-28T12:35:27.776Z,55
2017-11-28T12:36:28.074Z,55
2017-11-28T12:37:28.068Z,55
2017-11-28T12:38:42.725Z,55
2017-11-28T12:39:42.762Z,55
2017-11-28T12:41:28.180Z,50
2017-11-28T12:42:27.883Z,50
2017-11-28T12:43:27.890Z,50
2017-11-28T12:44:28.185Z,50
2017-11-28T12:45:28.217Z,50
2017-11-28T12:46:28.242Z,50
2017-11-28T12:47:28.314Z,50
2017-11-28T12:48:28.244Z,50
2017-11-28T12:49:28.285Z,50
2017-11-28T12:50:28.300Z,50
2017-11-28T12:51:28.341Z,50
2017-11-28T12:52:28.341Z,50
2017-11-28T12:53:28.332Z,45
2017-11-28T12:54:43.095Z,45
2017-11-28T12:55:28.403Z,45
2017-11-28T12:56:43.081Z,40
2017-11-28T12:57:27.912Z,40
2017-11-28T12:58:28.214Z,40
2017-11-28T12:59:43.143Z,45
2017-11-28T13:01:28.257Z,40
2017-11-28T13:02:28.519Z,45
2017-11-28T13:03:28.509Z,40
2017-11-28T13:04:28.565Z,40
2017-11-28T13:05:28.556Z,40
2017-11-28T13:06:28.584Z,45
2017-11-28T13:07:28.585Z,45
2017-11-28T13:08:28.659Z,45
2017-11-28T13:09:28.688Z,45
2017-11-28T13:10:43.330Z,45
2017-11-28T13:11:28.707Z,45
2017-11-28T13:12:28.743Z,40
2017-11-28T13:13:28.714Z,40
2017-11-28T13:14:43.434Z,40
2017-11-28T13:15:43.395Z,35
2017-11-28T13:16:28.759Z,35
2017-11-28T13:17:28.782Z,30
2017-11-28T13:18:28.780Z,25
2017-11-28T13:19:28.835Z,20
2017-11-28T13:20:28.873Z,20
2017-11-28T13:21:28.852Z,20
2017-11-28T13:22:28.926Z,20
2017-11-28T13:23:28.733Z,25
2017-11-28T13:24:28.681Z,25
2017-11-28T13:25:43.725Z,25
2017-11-28T13:26:28.428Z,25
2017-11-28T13:27:29.016Z,25
2017-11-28T13:28:28.995Z,25
2017-11-28T13:29:29.046Z,20
2017-11-28T13:30:28.545Z,20
2017-11-28T13:31:28.550Z,20
2017-11-28T13:32:29.088Z,15
2017-11-28T13:33:28.814Z,15
2017-11-28T13:34:29.121Z,10
2017-11-28T13:36:43.794Z,10
2017-11-28T13:38:29.180Z,10
2017-11-28T13:39:29.228Z,10
2017-11-28T13:40:29.187Z,10
2017-11-28T13:41:43.929Z,15
2017-11-28T13:42:28.970Z,15
2017-11-28T13:43:29.295Z,15
2017-11-28T13:44:43.971Z,15
2017-11-28T13:45:43.999Z,10
2017-11-28T13:46:29.326Z,10
2017-11-28T13:47:29.389Z,10
2017-11-28T13:49:29.413Z,10
2017-11-28T13:50:29.408Z,10
2017-11-28T13:51:29.426Z,10
2017-11-28T13:52:29.454Z,10
2017-11-28T13:53:29.170Z,10
2017-11-28T13:54:43.860Z,10
2017-11-28T13:55:29.474Z,10
2017-11-28T13:56:29.480Z,10
2017-11-28T13:57:58.851Z,10
2017-11-28T13:58:29.571Z,10
2017-11-28T13:59:44.255Z,10
2017-11-28T14:00:44.281Z,10
2017-11-28T14:01:29.581Z,10
2017-11-28T14:02:44.295Z,5
2017-11-28T14:03:29.635Z,5
2017-11-28T14:04:29.369Z,5
2017-11-28T14:05:29.696Z,5
2017-11-28T14:06:29.484Z,5
2017-11-28T14:07:29.698Z,5
2017-11-28T14:08:29.718Z,5
2017-11-28T14:09:29.853Z,5
2017-11-28T14:10:29.731Z,5
2017-11-28T14:11:29.553Z,5
2017-11-28T14:12:29.767Z,5
2017-11-28T14:13:59.145Z,5
2017-11-28T14:14:29.805Z,5
2017-11-28T14:15:29.860Z,5
2017-11-28T14:16:29.890Z,5
2017-11-28T14:18:29.924Z,5
2017-11-28T14:19:44.591Z,5
2017-11-28T14:20:44.589Z,5
2017-11-28T14:21:29.728Z,5
2017-11-28T14:22:30.015Z,5
2017-11-28T14:23:30.006Z,5
2017-11-28T14:24:29.759Z,5
2017-11-28T14:25:30.046Z,0
2017-11-28T14:26:29.854Z,0
2017-11-28T14:27:30.106Z,0
2017-11-28T14:28:30.069Z,0
2017-11-28T14:29:44.769Z,0
2017-11-28T14:30:30.132Z,0
2017-11-28T14:31:30.024Z,0
2017-11-28T14:32:29.888Z,0
2017-11-28T14:33:30.135Z,0
2017-11-28T14:34:30.166Z,0
2017-11-28T14:35:30.187Z,0
2017-11-28T14:36:30.282Z,0
2017-11-28T14:37:44.909Z,0
2017-11-28T14:38:30.269Z,0
2017-11-28T14:39:44.994Z,0
2017-11-28T14:40:30.347Z,0
2017-11-28T14:41:30.057Z,0
2017-11-28T14:42:30.052Z,0
2017-11-28T14:43:30.446Z,0
2017-11-28T14:44:30.348Z,0
2017-11-28T14:45:59.707Z,0
2017-11-28T14:46:30.450Z,0
2017-11-28T14:47:30.174Z,0
2017-11-28T14:48:30.429Z,0
2017-11-28T14:49:30.176Z,0
2017-11-28T14:50:29.938Z,0
2017-11-28T14:51:45.180Z,0
2017-11-28T14:52:30.519Z,0
2017-11-28T14:53:30.279Z,0
2017-11-28T14:54:30.282Z,0
2017-11-28T14:55:30.577Z,0
2017-11-28T14:56:44.984Z,0
2017-11-28T14:58:30.337Z,0
2017-11-28T14:59:30.349Z,0
2017-11-28T15:00:45.320Z,0
2017-11-28T15:01:30.376Z,0
2017-11-28T15:02:30.698Z,0
2017-11-28T15:03:30.697Z,0
2017-11-28T15:04:30.477Z,0
2017-11-28T15:05:45.157Z,0
2017-11-28T15:06:30.753Z,0
2017-11-28T15:07:30.758Z,0
2017-11-28T15:08:30.797Z,0
2017-11-28T15:09:45.457Z,0
2017-11-28T15:10:30.826Z,0
2017-11-28T15:11:30.617Z,0
2017-11-28T15:12:30.870Z,0
2017-11-28T15:13:30.881Z,0
2017-11-28T15:14:45.554Z,0
2017-11-28T15:15:45.586Z,0
2017-11-28T15:16:45.578Z,0
2017-11-28T15:17:30.971Z,0
2017-11-28T15:18:31.007Z,0
2017-11-28T15:19:30.714Z,0
2017-11-28T15:20:31.025Z,0
2017-11-28T15:21:31.021Z,0
2017-11-28T15:22:31.020Z,0
2017-11-28T15:23:31.039Z,0
2017-11-28T15:24:45.735Z,0
2017-11-28T15:25:45.490Z,0
2017-11-28T15:26:31.092Z,0
2017-11-28T15:27:30.859Z,0
2017-11-28T15:28:45.827Z,0
2017-11-28T15:29:31.201Z,0
2017-11-28T15:30:30.911Z,0
2017-11-28T15:31:30.685Z,0
2017-11-28T15:32:45.869Z,0
2017-11-28T15:33:31.243Z,0
2017-11-28T15:34:45.937Z,0